createdAt,value
2022-09-05T00:00:43.633Z,15.28
2022-09-05T00:01:42.653Z,15.28
2022-09-05T00:02:49.223Z,15.28
2022-09-05T00:03:43.676Z,15.31
2022-09-05T00:04:42.570Z,15.35
2022-09-05T00:06:00.119Z,15.35
2022-09-05T00:06:43.611Z,15.39
2022-09-05T00:07:59.252Z,15.36
2022-09-05T00:08:43.526Z,15.33
2022-09-05T00:09:42.548Z,15.31
2022-09-05T00:11:08.557Z,15.28
2022-09-05T00:11:44.263Z,15.28
2022-09-05T00:12:42.568Z,15.27
2022-09-05T00:13:42.539Z,15.24
2022-09-05T00:15:15.201Z,15.23
2022-09-05T00:15:43.502Z,15.27
2022-09-05T00:16:42.456Z,15.30
2022-09-05T00:19:50.340Z,15.33
2022-09-05T00:22:14.427Z,15.33
2022-09-05T00:24:23.449Z,15.30
2022-09-05T00:24:30.061Z,15.27
2022-09-05T00:24:32.907Z,15.24
2022-09-05T00:24:36.479Z,15.26
2022-09-05T00:24:37.782Z,15.28
2022-09-05T00:25:00.918Z,15.26
2022-09-05T00:25:43.523Z,15.27
2022-09-05T00:26:50.564Z,15.30
2022-09-05T00:27:43.348Z,15.33
2022-09-05T00:28:42.334Z,15.38
2022-09-05T00:31:07.016Z,15.38
2022-09-05T00:31:07.968Z,15.39
2022-09-05T00:31:54.213Z,15.42
2022-09-05T00:32:43.319Z,15.42
2022-09-05T00:33:43.281Z,15.46
2022-09-05T00:34:47.951Z,15.51
2022-09-05T00:35:43.231Z,15.49
2022-09-05T00:36:42.169Z,15.49
2022-09-05T00:37:42.197Z,15.49
2022-09-05T00:38:43.220Z,15.51
2022-09-05T00:39:42.152Z,15.49
2022-09-05T00:40:43.162Z,15.48
2022-09-05T00:41:42.110Z,15.46
2022-09-05T00:42:42.120Z,15.45
2022-09-05T00:43:42.131Z,15.43
2022-09-05T00:44:42.233Z,15.39
2022-09-05T00:45:42.072Z,15.39
2022-09-05T00:46:42.107Z,15.36
2022-09-05T00:47:42.054Z,15.33
2022-09-05T00:48:43.103Z,15.33
2022-09-05T00:49:42.065Z,15.30
2022-09-05T00:50:42.032Z,15.27
2022-09-05T00:51:41.983Z,15.26
2022-09-05T00:52:41.985Z,15.23
2022-09-05T00:53:41.994Z,15.20
2022-09-05T00:54:42.014Z,15.17
2022-09-05T00:55:41.943Z,15.15
2022-09-05T00:56:41.915Z,15.13
2022-09-05T00:57:41.922Z,15.12
2022-09-05T00:58:41.925Z,15.09
2022-09-05T00:59:41.925Z,15.09
2022-09-05T01:00:42.898Z,15.11
2022-09-05T01:01:41.933Z,15.09
2022-09-05T01:03:52.030Z,15.05
2022-09-05T01:04:52.100Z,15.03
2022-09-05T01:05:52.010Z,15.02
2022-09-05T01:06:51.993Z,15.01
2022-09-05T01:07:51.970Z,14.98
2022-09-05T01:08:51.960Z,14.94
2022-09-05T01:09:51.953Z,14.95
2022-09-05T01:10:51.963Z,14.98
2022-09-05T01:11:51.912Z,14.99
2022-09-05T01:12:52.801Z,14.99
2022-09-05T01:13:51.899Z,14.99
2022-09-05T01:14:52.911Z,15.01
2022-09-05T01:15:51.951Z,15.03
2022-09-05T01:16:51.888Z,15.03
2022-09-05T01:17:51.892Z,15.03
2022-09-05T01:18:51.891Z,15.01
2022-09-05T01:19:51.902Z,14.98
2022-09-05T01:20:51.813Z,14.99
2022-09-05T01:21:51.812Z,14.95
2022-09-05T01:22:51.827Z,14.94
2022-09-05T01:23:51.832Z,14.91
2022-09-05T01:24:51.834Z,14.91
2022-09-05T01:25:54.806Z,14.88
2022-09-05T01:26:51.744Z,14.88
2022-09-05T01:29:17.312Z,14.90
2022-09-05T01:29:18.164Z,14.88
2022-09-05T01:29:52.695Z,14.88
2022-09-05T01:30:54.915Z,14.90
2022-09-05T01:31:51.684Z,14.93
2022-09-05T01:32:51.678Z,14.95
2022-09-05T01:33:52.707Z,14.94
2022-09-05T01:34:51.686Z,14.95
2022-09-05T01:35:57.802Z,14.95
2022-09-05T01:36:52.627Z,14.98
2022-09-05T01:37:51.606Z,14.99
2022-09-05T01:39:16.558Z,15.02
2022-09-05T01:40:11.750Z,15.02
2022-09-05T01:41:17.923Z,15.05
2022-09-05T01:41:52.538Z,15.03
2022-09-05T01:42:51.549Z,15.02
2022-09-05T01:43:51.557Z,14.99
2022-09-05T01:44:51.568Z,14.98
2022-09-05T01:45:51.547Z,14.99
2022-09-05T01:46:51.465Z,14.98
2022-09-05T01:47:51.505Z,14.95
2022-09-05T01:48:51.481Z,14.94
2022-09-05T01:49:51.489Z,14.91
2022-09-05T01:50:51.657Z,14.91
2022-09-05T01:51:51.423Z,14.90
2022-09-05T01:52:58.607Z,14.86
2022-09-05T01:53:52.450Z,14.83
2022-09-05T01:54:51.430Z,14.80
2022-09-05T01:56:06.951Z,14.74
2022-09-05T01:56:52.360Z,14.72
2022-09-05T01:57:52.375Z,14.72
2022-09-05T01:58:53.421Z,14.69
2022-09-05T01:59:51.364Z,14.68
2022-09-05T02:00:51.382Z,14.68
2022-09-05T02:01:51.297Z,14.65
2022-09-05T02:02:51.319Z,14.64
2022-09-05T02:03:51.244Z,14.64
2022-09-05T02:04:52.350Z,14.62
2022-09-05T02:05:51.303Z,14.62
2022-09-05T02:06:51.205Z,14.62
2022-09-05T02:07:51.210Z,14.60
2022-09-05T02:08:51.225Z,14.54
2022-09-05T02:09:51.223Z,14.53
2022-09-05T02:10:52.184Z,14.54
2022-09-05T02:11:52.174Z,14.53
2022-09-05T02:12:54.490Z,14.54
2022-09-05T02:13:52.124Z,14.52
2022-09-05T02:14:51.124Z,14.50
2022-09-05T02:15:59.874Z,14.52
2022-09-05T02:16:52.088Z,14.53
2022-09-05T02:17:51.821Z,14.53
2022-09-05T02:18:51.088Z,14.52
2022-09-05T02:19:51.125Z,14.50
2022-09-05T02:20:51.086Z,14.52
2022-09-05T02:21:56.872Z,14.49
2022-09-05T02:22:52.035Z,14.46
2022-09-05T02:23:51.016Z,14.46
2022-09-05T02:24:51.009Z,14.46
2022-09-05T02:26:01.258Z,14.43
2022-09-05T02:26:51.958Z,14.43
2022-09-05T02:28:04.485Z,14.43
2022-09-05T02:28:51.967Z,14.42
2022-09-05T02:29:51.020Z,14.39
2022-09-05T02:31:18.702Z,14.37
2022-09-05T02:31:51.894Z,14.38
2022-09-05T02:32:50.878Z,14.39
2022-09-05T02:33:50.879Z,14.35
2022-09-05T02:34:50.932Z,14.35
2022-09-05T02:35:50.898Z,14.34
2022-09-05T02:36:50.900Z,14.34
2022-09-05T02:42:43.492Z,14.31
2022-09-05T02:43:35.333Z,14.34
2022-09-05T02:45:02.679Z,14.32
2022-09-05T02:45:09.110Z,14.29
2022-09-05T02:45:11.152Z,14.29
2022-09-05T02:45:18.999Z,14.28
2022-09-05T02:45:19.111Z,14.28
2022-09-05T02:45:23.872Z,14.31
2022-09-05T02:45:51.820Z,14.28
2022-09-05T02:46:50.998Z,14.29
2022-09-05T02:47:50.664Z,14.28
2022-09-05T02:48:50.670Z,14.28
2022-09-05T02:50:20.573Z,14.27
2022-09-05T02:57:23.459Z,14.28
2022-09-05T02:57:25.866Z,14.27
2022-09-05T02:57:29.970Z,14.27
2022-09-05T02:57:33.654Z,14.27
2022-09-05T02:57:37.438Z,14.27
2022-09-05T02:57:42.874Z,14.27
2022-09-05T02:57:46.250Z,14.27
2022-09-05T02:58:05.730Z,14.25
2022-09-05T02:59:09.128Z,14.21
2022-09-05T02:59:51.563Z,14.24
2022-09-05T03:00:51.099Z,14.21
2022-09-05T03:01:50.478Z,14.20
2022-09-05T03:02:50.581Z,14.19
2022-09-05T03:04:12.485Z,14.19
2022-09-05T03:04:50.435Z,14.17
2022-09-05T03:07:01.648Z,14.19
2022-09-05T03:09:19.354Z,14.12
2022-09-05T03:10:36.974Z,14.09
2022-09-05T03:11:26.827Z,14.09
2022-09-05T03:14:44.430Z,14.09
2022-09-05T03:15:51.904Z,14.06
2022-09-05T03:16:53.090Z,14.07
2022-09-05T03:17:51.888Z,14.06
2022-09-05T03:18:51.935Z,14.02
2022-09-05T03:19:46.447Z,14.01
2022-09-05T03:20:51.850Z,13.99
2022-09-05T03:21:44.330Z,14.01
2022-09-05T03:22:44.338Z,14.01
2022-09-05T03:23:44.320Z,14.01
2022-09-05T03:24:48.122Z,14.02
2022-09-05T03:25:45.273Z,13.99
2022-09-05T03:26:44.359Z,13.98
2022-09-05T03:27:44.263Z,13.96
2022-09-05T03:28:44.324Z,13.98
2022-09-05T03:29:44.311Z,13.98
2022-09-05T03:30:44.454Z,13.95
2022-09-05T03:31:44.204Z,13.94
2022-09-05T03:32:44.226Z,13.95
2022-09-05T03:33:44.224Z,13.95
2022-09-05T03:34:44.243Z,13.94
2022-09-05T03:35:44.292Z,13.94
2022-09-05T03:36:44.253Z,13.94
2022-09-05T03:37:45.174Z,13.89
2022-09-05T03:38:47.251Z,13.88
2022-09-05T03:39:44.227Z,13.84
2022-09-05T03:40:44.203Z,13.81
2022-09-05T03:41:44.206Z,13.80
2022-09-05T03:42:44.065Z,13.84
2022-09-05T03:43:44.045Z,13.83
2022-09-05T03:44:44.036Z,13.81
2022-09-05T03:45:44.248Z,13.80
2022-09-05T03:46:44.114Z,13.81
2022-09-05T03:47:44.013Z,13.80
2022-09-05T03:48:44.025Z,13.81
2022-09-05T03:53:29.436Z,13.79
2022-09-05T04:08:13.866Z,13.70
2022-09-05T04:08:15.971Z,13.73
2022-09-05T04:08:16.942Z,13.70
2022-09-05T04:08:17.304Z,13.70
2022-09-05T04:08:26.623Z,13.70
2022-09-05T04:08:42.759Z,13.69
2022-09-05T04:09:50.541Z,13.69
2022-09-05T04:10:38.408Z,13.67
2022-09-05T04:11:37.303Z,13.69
2022-09-05T04:12:37.339Z,13.70
2022-09-05T04:13:37.266Z,13.70
2022-09-05T04:14:37.282Z,13.73
2022-09-05T04:15:37.231Z,13.74
2022-09-05T04:16:37.306Z,13.74
2022-09-05T04:17:37.193Z,13.74
2022-09-05T04:18:37.251Z,13.76
2022-09-05T04:19:37.172Z,13.77
2022-09-05T04:20:40.285Z,13.80
2022-09-05T04:21:37.174Z,13.81
2022-09-05T04:22:37.145Z,13.83
2022-09-05T04:23:37.137Z,13.87
2022-09-05T04:24:37.114Z,13.92
2022-09-05T04:25:37.105Z,13.91
2022-09-05T04:26:37.115Z,13.89
2022-09-05T04:27:37.075Z,13.89
2022-09-05T04:28:37.066Z,13.89
2022-09-05T04:29:38.056Z,13.91
2022-09-05T04:30:39.489Z,13.91
2022-09-05T04:31:37.096Z,13.95
2022-09-05T04:32:37.015Z,13.94
2022-09-05T04:33:37.370Z,13.96
2022-09-05T04:34:36.986Z,13.95
2022-09-05T04:35:37.006Z,13.96
2022-09-05T04:36:36.966Z,13.95
2022-09-05T04:37:47.936Z,13.96
2022-09-05T04:38:37.947Z,13.98
2022-09-05T04:39:36.968Z,13.99
2022-09-05T04:40:36.907Z,14.04
2022-09-05T04:41:39.796Z,14.07
2022-09-05T04:42:36.877Z,14.12
2022-09-05T04:43:36.867Z,14.19
2022-09-05T04:44:36.852Z,14.25
2022-09-05T04:45:36.878Z,14.28
2022-09-05T04:46:48.476Z,14.29
2022-09-05T04:47:37.828Z,14.29
2022-09-05T04:48:36.800Z,14.28
2022-09-05T04:49:36.817Z,14.29
2022-09-05T04:50:38.299Z,14.27
2022-09-05T04:51:36.779Z,14.24
2022-09-05T04:52:36.747Z,14.21
2022-09-05T04:53:36.737Z,14.19
2022-09-05T04:54:36.760Z,14.16
2022-09-05T04:55:36.703Z,14.12
2022-09-05T04:56:36.719Z,14.09
2022-09-05T04:57:36.680Z,14.07
2022-09-05T04:58:53.503Z,14.04
2022-09-05T05:04:05.244Z,14.04
2022-09-05T05:05:22.308Z,14.02
2022-09-05T05:06:00.707Z,14.02
2022-09-05T05:06:11.748Z,14.06
2022-09-05T05:06:12.393Z,14.02
2022-09-05T05:06:14.486Z,14.09
2022-09-05T05:06:16.897Z,14.09
2022-09-05T05:06:46.858Z,14.09
2022-09-05T05:07:37.650Z,14.10
2022-09-05T05:08:39.160Z,14.10
2022-09-05T05:09:36.532Z,14.10
2022-09-05T05:14:35.377Z,14.12
2022-09-05T05:17:54.029Z,14.09
2022-09-05T05:17:56.164Z,14.07
2022-09-05T05:17:58.508Z,14.09
2022-09-05T05:18:14.834Z,14.09
2022-09-05T05:18:16.107Z,14.07
2022-09-05T05:18:16.109Z,14.09
2022-09-05T05:18:16.248Z,14.10
2022-09-05T05:18:53.177Z,14.12
2022-09-05T05:19:37.479Z,14.12
2022-09-05T05:20:42.019Z,14.13
2022-09-05T05:21:38.373Z,14.13
2022-09-05T05:22:36.386Z,14.14
2022-09-05T05:23:36.345Z,14.16
2022-09-05T05:24:36.360Z,14.14
2022-09-05T05:25:36.326Z,14.14
2022-09-05T05:26:36.300Z,14.16
2022-09-05T05:27:37.295Z,14.14
2022-09-05T05:28:36.275Z,14.14
2022-09-05T05:29:36.578Z,14.13
2022-09-05T05:30:36.245Z,14.14
2022-09-05T05:31:36.313Z,14.12
2022-09-05T05:32:46.081Z,14.14
2022-09-05T05:33:37.217Z,14.13
2022-09-05T05:34:36.200Z,14.13
2022-09-05T05:35:48.142Z,14.12
2022-09-05T05:36:37.177Z,14.16
2022-09-05T05:37:37.156Z,14.17
2022-09-05T05:38:36.140Z,14.19
2022-09-05T05:39:36.209Z,14.21
2022-09-05T05:40:37.604Z,14.24
2022-09-05T05:41:37.111Z,14.28
2022-09-05T05:42:36.104Z,14.31
2022-09-05T05:43:36.079Z,14.35
2022-09-05T05:44:36.067Z,14.35
2022-09-05T05:45:36.112Z,14.39
2022-09-05T05:46:36.049Z,14.42
2022-09-05T05:47:36.010Z,14.44
2022-09-05T05:48:36.009Z,14.46
2022-09-05T05:49:36.016Z,14.47
2022-09-05T05:50:36.008Z,14.52
2022-09-05T05:52:01.808Z,14.54
2022-09-05T05:52:36.964Z,14.57
2022-09-05T05:53:43.025Z,14.61
2022-09-05T05:54:36.945Z,14.65
2022-09-05T05:55:52.909Z,14.69
2022-09-05T05:56:36.932Z,14.75
2022-09-05T05:57:35.892Z,14.84
2022-09-05T05:58:35.883Z,14.86
2022-09-05T05:59:35.879Z,14.87
2022-09-05T06:00:35.872Z,14.91
2022-09-05T06:01:37.593Z,14.93
2022-09-05T06:02:35.911Z,14.98
2022-09-05T06:03:35.927Z,14.99
2022-09-05T06:04:35.826Z,15.02
2022-09-05T06:05:36.835Z,15.03
2022-09-05T06:06:35.784Z,15.05
2022-09-05T06:07:42.329Z,15.08
2022-09-05T06:11:18.070Z,15.12
2022-09-05T06:13:51.482Z,15.17
2022-09-05T06:14:50.351Z,15.21
2022-09-05T06:14:57.883Z,15.38
2022-09-05T06:14:59.313Z,15.28
2022-09-05T06:14:59.827Z,15.26
2022-09-05T06:15:01.050Z,15.35
2022-09-05T06:15:36.964Z,15.42
2022-09-05T06:16:35.704Z,15.45
2022-09-05T06:17:35.626Z,15.49
2022-09-05T06:18:37.643Z,15.54
2022-09-05T06:20:20.882Z,15.57
2022-09-05T06:22:04.075Z,15.64
2022-09-05T06:22:07.465Z,15.68
2022-09-05T06:22:36.585Z,15.75
2022-09-05T06:23:39.812Z,15.79
2022-09-05T06:24:35.561Z,15.81
2022-09-05T06:25:35.529Z,15.84
2022-09-05T06:26:35.536Z,15.85
2022-09-05T06:27:35.498Z,15.92
2022-09-05T06:28:36.488Z,15.94
2022-09-05T06:29:38.193Z,15.99
2022-09-05T06:30:35.477Z,16.01
2022-09-05T06:31:35.473Z,16.04
2022-09-05T06:32:35.456Z,16.06
2022-09-05T06:33:35.429Z,16.09
2022-09-05T06:34:36.095Z,16.11
2022-09-05T06:35:35.431Z,16.16
2022-09-05T06:36:35.399Z,16.20
2022-09-05T06:37:35.372Z,16.23
2022-09-05T06:38:35.373Z,16.26
2022-09-05T06:39:35.387Z,16.30
2022-09-05T06:40:35.330Z,16.35
2022-09-05T06:41:35.329Z,16.38
2022-09-05T06:42:43.385Z,16.41
2022-09-05T06:43:36.311Z,16.45
2022-09-05T06:44:35.268Z,16.52
2022-09-05T06:45:35.273Z,16.56
2022-09-05T06:46:55.367Z,16.60
2022-09-05T06:47:36.265Z,16.63
2022-09-05T06:48:45.977Z,16.67
2022-09-05T06:49:39.387Z,16.71
2022-09-05T06:50:49.746Z,16.77
2022-09-05T06:51:36.192Z,16.83
2022-09-05T06:52:35.174Z,16.86
2022-09-05T06:53:35.403Z,16.92
2022-09-05T06:54:35.422Z,16.96
2022-09-05T06:55:35.132Z,16.99
2022-09-05T06:56:35.125Z,17.03
2022-09-05T06:57:35.147Z,17.07
2022-09-05T06:58:36.106Z,17.07
2022-09-05T06:59:35.083Z,17.10
2022-09-05T07:00:35.143Z,17.11
2022-09-05T07:02:00.835Z,17.14
2022-09-05T07:03:00.200Z,17.18
2022-09-05T07:03:36.037Z,17.22
2022-09-05T07:05:37.070Z,17.25
2022-09-05T07:05:42.752Z,17.29
2022-09-05T07:06:44.302Z,17.30
2022-09-05T07:07:35.995Z,17.35
2022-09-05T07:08:37.158Z,17.38
2022-09-05T07:09:34.966Z,17.41
2022-09-05T07:10:38.752Z,17.46
2022-09-05T07:11:34.947Z,17.50
2022-09-05T07:12:34.898Z,17.53
2022-09-05T07:13:34.916Z,17.59
2022-09-05T07:14:34.900Z,17.62
2022-09-05T07:15:35.857Z,17.66
2022-09-05T07:16:37.728Z,17.69
2022-09-05T07:17:48.345Z,17.73
2022-09-05T07:18:35.827Z,17.74
2022-09-05T07:19:34.819Z,17.79
2022-09-05T07:20:47.848Z,17.85
2022-09-05T07:21:35.801Z,17.89
2022-09-05T07:22:46.319Z,17.95
2022-09-05T07:24:06.997Z,18.00
2022-09-05T07:24:53.556Z,18.06
2022-09-05T07:25:37.452Z,18.10
2022-09-05T07:26:52.013Z,18.17
2022-09-05T07:27:41.970Z,18.22
2022-09-05T07:28:35.734Z,18.29
2022-09-05T07:29:34.690Z,18.34
2022-09-05T07:30:35.670Z,18.39
2022-09-05T07:31:37.878Z,18.43
2022-09-05T07:32:34.647Z,18.47
2022-09-05T07:33:34.642Z,18.52
2022-09-05T07:34:34.637Z,18.57
2022-09-05T07:35:41.674Z,18.61
2022-09-05T07:36:35.611Z,18.65
2022-09-05T07:37:34.594Z,18.72
2022-09-05T07:38:55.029Z,18.79
2022-09-05T07:39:35.584Z,18.84
2022-09-05T07:40:34.557Z,18.90
2022-09-05T07:41:34.514Z,18.95
2022-09-05T07:42:34.523Z,19.01
2022-09-05T07:43:34.494Z,19.08
2022-09-05T07:44:34.503Z,19.13
2022-09-05T07:45:35.511Z,19.17
2022-09-05T07:46:34.474Z,19.23
2022-09-05T07:47:34.487Z,19.31
2022-09-05T07:48:35.678Z,19.35
2022-09-05T07:49:34.420Z,19.38
2022-09-05T07:56:46.653Z,19.50
2022-09-05T07:56:50.341Z,19.60
2022-09-05T07:56:50.857Z,19.55
2022-09-05T07:56:54.204Z,19.66
2022-09-05T07:56:56.044Z,19.46
2022-09-05T07:56:58.646Z,19.69
2022-09-05T07:57:05.033Z,19.76
2022-09-05T07:57:51.450Z,19.83
2022-09-05T07:58:35.303Z,19.88
2022-09-05T07:59:34.287Z,19.93
2022-09-05T08:00:35.291Z,19.97
2022-09-05T08:01:36.865Z,20.02
2022-09-05T08:02:35.263Z,20.08
2022-09-05T08:03:34.228Z,20.10
2022-09-05T08:04:34.262Z,20.15
2022-09-05T08:05:35.448Z,20.23
2022-09-05T08:06:41.481Z,20.25
2022-09-05T08:07:49.519Z,20.30
2022-09-05T08:08:35.179Z,20.33
2022-09-05T08:10:05.969Z,20.34
2022-09-05T08:11:22.038Z,20.39
2022-09-05T08:11:35.173Z,20.43
2022-09-05T08:12:51.941Z,20.47
2022-09-05T08:13:35.392Z,20.50
2022-09-05T08:14:44.947Z,20.56
2022-09-05T08:16:10.406Z,20.59
2022-09-05T08:16:35.145Z,20.61
2022-09-05T08:17:34.060Z,20.64
2022-09-05T08:18:34.031Z,20.66
2022-09-05T08:19:34.054Z,20.69
2022-09-05T08:20:35.011Z,20.74
2022-09-05T08:21:39.235Z,20.77
2022-09-05T08:22:35.013Z,20.81
2022-09-05T08:23:33.979Z,20.84
2022-09-05T08:24:33.966Z,20.86
2022-09-05T08:25:56.576Z,20.90
2022-09-05T08:26:34.953Z,20.93
2022-09-05T08:27:33.934Z,20.98
2022-09-05T08:28:39.235Z,20.98
2022-09-05T08:29:34.908Z,21.02
2022-09-05T08:30:34.874Z,21.04
2022-09-05T08:31:33.942Z,21.08
2022-09-05T08:32:35.504Z,21.11
2022-09-05T08:33:33.857Z,21.13
2022-09-05T08:34:44.489Z,21.13
2022-09-05T08:35:34.826Z,21.14
2022-09-05T08:36:33.800Z,21.17
2022-09-05T08:37:33.803Z,21.20
2022-09-05T08:38:40.633Z,21.23
2022-09-05T08:39:34.787Z,21.32
2022-09-05T08:40:33.776Z,21.36
2022-09-05T08:41:49.997Z,21.42
2022-09-05T08:42:34.761Z,21.51
2022-09-05T08:45:58.656Z,21.57
2022-09-05T08:46:41.809Z,21.71
2022-09-05T08:46:44.898Z,21.78
2022-09-05T08:46:45.726Z,21.63
2022-09-05T08:47:45.790Z,21.83
2022-09-05T08:48:34.655Z,21.90
2022-09-05T08:49:37.612Z,21.97
2022-09-05T08:50:34.648Z,22.01
2022-09-05T08:51:33.620Z,22.09
2022-09-05T08:52:33.610Z,22.16
2022-09-05T08:53:46.338Z,22.22
2022-09-05T08:54:34.570Z,22.29
2022-09-05T08:55:33.577Z,22.37
2022-09-05T08:56:33.581Z,22.44
2022-09-05T08:57:33.559Z,22.54
2022-09-05T08:58:33.502Z,22.60
2022-09-05T08:59:33.514Z,22.67
2022-09-05T09:00:33.533Z,22.74
2022-09-05T09:01:50.222Z,22.83
2022-09-05T09:02:47.378Z,22.92
2022-09-05T09:03:34.489Z,23.02
2022-09-05T09:05:02.536Z,23.09
2022-09-05T09:06:12.004Z,23.22
2022-09-05T09:06:34.416Z,23.31
2022-09-05T09:07:50.750Z,23.40
2022-09-05T09:08:34.397Z,23.47
2022-09-05T09:09:33.365Z,23.55
2022-09-05T09:10:33.376Z,23.61
2022-09-05T09:11:33.353Z,23.65
2022-09-05T09:12:33.337Z,23.68
2022-09-05T09:13:33.335Z,23.75
2022-09-05T09:14:33.285Z,23.76
2022-09-05T09:15:33.287Z,23.77
2022-09-05T09:16:33.347Z,23.80
2022-09-05T09:17:33.278Z,23.80
2022-09-05T09:18:36.012Z,23.86
2022-09-05T09:19:33.232Z,23.94
2022-09-05T09:20:33.254Z,24.02
2022-09-05T09:21:33.228Z,24.08
2022-09-05T09:22:33.197Z,24.13
2022-09-05T09:23:33.330Z,24.16
2022-09-05T09:24:33.165Z,24.22
2022-09-05T09:25:34.119Z,24.32
2022-09-05T09:26:33.140Z,24.39
2022-09-05T09:28:05.927Z,24.47
2022-09-05T09:28:49.574Z,24.52
2022-09-05T09:29:34.099Z,24.52
2022-09-05T09:30:33.110Z,24.53
2022-09-05T09:31:34.159Z,24.56
2022-09-05T09:32:33.067Z,24.56
2022-09-05T09:33:33.160Z,24.59
2022-09-05T09:34:33.067Z,24.63
2022-09-05T09:35:33.055Z,24.71
2022-09-05T09:36:33.032Z,24.75
2022-09-05T09:37:51.608Z,24.79
2022-09-05T09:38:34.001Z,24.90
2022-09-05T09:39:38.119Z,24.90
2022-09-05T09:40:33.972Z,24.95
2022-09-05T09:41:33.983Z,25.06
2022-09-05T09:42:34.172Z,25.06
2022-09-05T09:43:32.945Z,24.92
2022-09-05T09:44:32.927Z,24.92
2022-09-05T09:45:32.918Z,24.83
2022-09-05T09:46:32.949Z,24.92
2022-09-05T09:47:32.874Z,25.05
2022-09-05T10:08:05.166Z,25.68
2022-09-05T10:10:33.151Z,25.52
2022-09-05T10:10:44.577Z,25.16
2022-09-05T10:10:45.323Z,25.27
2022-09-05T10:10:50.464Z,25.37
2022-09-05T10:10:55.577Z,25.24
2022-09-05T10:11:08.802Z,25.12
2022-09-05T10:12:03.414Z,25.44
2022-09-05T10:13:08.575Z,25.50
2022-09-05T10:14:02.989Z,25.61
2022-09-05T10:15:23.208Z,25.69
2022-09-05T10:16:04.021Z,25.79
2022-09-05T10:17:01.943Z,25.93
2022-09-05T10:18:02.977Z,26.05
2022-09-05T10:19:01.918Z,26.21
2022-09-05T10:20:10.828Z,26.39
2022-09-05T10:21:16.725Z,26.39
2022-09-05T10:23:02.880Z,26.35
2022-09-05T10:24:02.851Z,26.46
2022-09-05T10:25:01.856Z,26.31
2022-09-05T10:26:02.840Z,26.08
2022-09-05T10:27:01.943Z,25.93
2022-09-05T10:28:01.819Z,25.80
2022-09-05T10:29:34.041Z,25.75
2022-09-05T10:30:03.350Z,25.91
2022-09-05T10:31:42.536Z,26.08
2022-09-05T10:35:08.086Z,26.37
2022-09-05T10:35:08.137Z,26.22
2022-09-05T10:35:08.291Z,26.68
2022-09-05T10:35:10.024Z,26.55
2022-09-05T10:36:02.709Z,26.89
2022-09-05T10:37:01.692Z,27.09
2022-09-05T10:38:04.381Z,27.21
2022-09-05T10:39:02.692Z,27.41
2022-09-05T10:40:01.711Z,27.58
2022-09-05T10:41:19.676Z,27.58
2022-09-05T10:42:03.591Z,27.66
2022-09-05T10:43:01.634Z,27.80
2022-09-05T10:44:01.613Z,27.95
2022-09-05T10:45:01.583Z,28.10
2022-09-05T10:46:01.652Z,28.28
2022-09-05T10:47:01.647Z,28.46
2022-09-05T10:48:08.433Z,28.65
2022-09-05T10:49:03.539Z,28.80
2022-09-05T10:50:01.538Z,28.97
2022-09-05T10:51:01.531Z,29.16
2022-09-05T10:52:03.541Z,29.34
2022-09-05T10:53:02.489Z,29.55
2022-09-05T10:54:01.478Z,29.68
2022-09-05T10:55:15.185Z,29.84
2022-09-05T10:56:02.459Z,29.99
2022-09-05T10:57:01.428Z,30.19
2022-09-05T10:58:01.454Z,30.30
2022-09-05T11:02:18.999Z,29.89
2022-09-05T11:02:20.099Z,29.97
2022-09-05T11:02:26.312Z,30.07
2022-09-05T11:02:29.621Z,29.84
2022-09-05T11:03:02.451Z,29.50
2022-09-05T11:04:01.499Z,28.93
2022-09-05T11:05:01.386Z,28.73
2022-09-05T11:06:09.221Z,28.53
2022-09-05T11:07:02.304Z,28.66
2022-09-05T11:08:01.308Z,28.75
2022-09-05T11:09:01.272Z,28.66
2022-09-05T11:10:01.302Z,28.91
2022-09-05T11:11:01.254Z,28.82
2022-09-05T11:12:01.253Z,28.59
2022-09-05T11:13:01.252Z,28.68
2022-09-05T11:14:01.265Z,29.04
2022-09-05T11:15:01.229Z,29.04
2022-09-05T11:16:04.979Z,29.38
2022-09-05T11:17:02.183Z,29.70
2022-09-05T11:18:01.194Z,30.02
2022-09-05T11:19:01.166Z,30.31
2022-09-05T11:20:01.156Z,30.64
2022-09-05T11:21:01.161Z,30.76
2022-09-05T11:22:06.504Z,30.99
2022-09-05T11:23:02.126Z,31.26
2022-09-05T11:24:01.086Z,31.43
2022-09-05T11:25:01.076Z,31.65
2022-09-05T11:26:01.101Z,31.84
2022-09-05T11:27:24.966Z,32.03
2022-09-05T11:28:02.057Z,32.17
2022-09-05T11:29:01.182Z,32.20
2022-09-05T11:30:01.019Z,32.18
2022-09-05T11:31:01.019Z,32.24
2022-09-05T11:36:23.600Z,32.32
2022-09-05T11:38:34.142Z,32.44
2022-09-05T11:39:47.922Z,32.43
2022-09-05T11:39:50.203Z,32.47
2022-09-05T11:39:52.236Z,32.61
2022-09-05T11:39:52.577Z,32.40
2022-09-05T11:40:08.638Z,32.74
2022-09-05T11:40:09.608Z,32.84
2022-09-05T11:40:28.269Z,32.84
2022-09-05T11:41:11.663Z,32.81
2022-09-05T11:42:02.963Z,32.71
2022-09-05T11:43:09.524Z,32.71
2022-09-05T11:44:25.007Z,32.84
2022-09-05T11:45:01.814Z,32.92
2022-09-05T11:46:00.890Z,33.10
2022-09-05T11:47:14.264Z,33.20
2022-09-05T11:48:01.805Z,33.37
2022-09-05T11:49:00.779Z,33.73
2022-09-05T11:50:00.765Z,34.19
2022-09-05T11:51:00.747Z,34.69
2022-09-05T11:52:00.742Z,35.23
2022-09-05T11:53:00.716Z,35.72
2022-09-05T11:54:00.709Z,35.63
2022-09-05T11:55:00.699Z,34.80
2022-09-05T11:56:00.688Z,35.01
2022-09-05T11:57:02.182Z,34.81
2022-09-05T11:58:43.860Z,34.58
2022-09-05T11:59:04.784Z,33.53
2022-09-05T12:00:32.154Z,32.59
2022-09-05T12:01:42.067Z,31.62
2022-09-05T12:02:16.975Z,30.89
2022-09-05T12:03:01.627Z,30.37
2022-09-05T12:04:02.199Z,29.84
2022-09-05T12:05:48.818Z,29.37
2022-09-05T12:06:01.708Z,28.85
2022-09-05T12:07:00.722Z,28.46
2022-09-05T12:08:00.568Z,28.06
2022-09-05T12:09:00.546Z,27.76
2022-09-05T12:10:00.514Z,27.58
2022-09-05T12:11:00.537Z,27.47
2022-09-05T12:12:00.485Z,27.42
2022-09-05T12:13:00.496Z,27.38
2022-09-05T12:14:00.475Z,27.35
2022-09-05T12:15:04.296Z,27.35
2022-09-05T12:16:08.126Z,28.54
2022-09-05T12:17:01.418Z,29.23
2022-09-05T12:18:00.427Z,31.02
2022-09-05T12:19:02.855Z,31.43
2022-09-05T12:20:01.388Z,31.45
2022-09-05T12:21:00.366Z,31.48
2022-09-05T12:22:00.349Z,30.96
2022-09-05T12:23:01.366Z,30.38
2022-09-05T12:25:15.921Z,29.84
2022-09-05T12:25:27.081Z,29.33
2022-09-05T12:27:40.096Z,28.91
2022-09-05T12:27:41.241Z,28.65
2022-09-05T12:29:25.996Z,28.36
2022-09-05T12:29:34.002Z,28.13
2022-09-05T12:30:01.419Z,27.86
2022-09-05T12:33:10.113Z,27.48
2022-09-05T12:36:01.602Z,29.52
2022-09-05T12:36:05.732Z,27.82
2022-09-05T12:36:11.322Z,30.05
2022-09-05T12:36:12.598Z,29.60
2022-09-05T12:40:56.189Z,28.78
2022-09-05T12:40:58.170Z,29.15
2022-09-05T12:41:01.159Z,28.48
2022-09-05T12:41:34.562Z,28.16
2022-09-05T12:41:41.973Z,27.66
2022-09-05T12:41:43.087Z,27.92
2022-09-05T12:42:14.502Z,27.69
2022-09-05T12:44:39.009Z,27.46
2022-09-05T12:44:41.384Z,27.26
2022-09-05T12:45:01.583Z,27.06
2022-09-05T12:46:00.167Z,26.91
2022-09-05T12:47:00.026Z,26.81
2022-09-05T12:48:01.056Z,26.76
2022-09-05T12:49:06.867Z,26.73
2022-09-05T12:50:02.775Z,26.72
2022-09-05T12:51:00.002Z,26.73
2022-09-05T12:51:59.987Z,26.76
2022-09-05T12:52:59.979Z,26.91
2022-09-05T12:53:59.978Z,28.66
2022-09-05T12:54:59.968Z,30.37
2022-09-05T12:56:18.491Z,31.93
2022-09-05T13:01:05.142Z,33.19
2022-09-05T13:02:46.679Z,34.27
2022-09-05T13:02:55.314Z,35.21
2022-09-05T13:03:02.513Z,36.41
2022-09-05T13:03:05.380Z,37.04
2022-09-05T13:03:05.900Z,35.85
2022-09-05T13:03:28.096Z,37.46
2022-09-05T13:04:17.556Z,37.78
2022-09-05T13:05:01.776Z,38.17
2022-09-05T13:05:59.949Z,38.46
2022-09-05T13:06:59.782Z,38.79
2022-09-05T13:07:59.786Z,38.92
2022-09-05T13:09:00.278Z,39.08
2022-09-05T13:12:12.323Z,39.01
2022-09-05T13:14:49.304Z,38.89
2022-09-05T13:14:53.611Z,38.92
2022-09-05T13:14:54.536Z,38.79
2022-09-05T13:15:02.407Z,38.80
2022-09-05T13:15:12.448Z,38.90
2022-09-05T13:16:00.741Z,38.89
2022-09-05T13:16:59.673Z,39.05
2022-09-05T13:17:59.668Z,39.06
2022-09-05T13:18:59.647Z,39.17
2022-09-05T13:19:59.663Z,39.15
2022-09-05T13:20:59.627Z,39.15
2022-09-05T13:21:59.621Z,39.21
2022-09-05T13:22:59.629Z,39.22
2022-09-05T13:23:59.586Z,39.15
2022-09-05T13:24:59.577Z,39.05
2022-09-05T13:25:59.570Z,39.14
2022-09-05T13:26:59.551Z,39.17
2022-09-05T13:27:59.530Z,39.15
2022-09-05T13:29:10.977Z,38.39